createdAt,value
2022-10-09T00:01:12.272Z,12.49
2022-10-09T00:03:38.665Z,13.17
2022-10-09T00:06:06.292Z,13.29
2022-10-09T00:08:34.876Z,13.11
2022-10-09T00:11:01.194Z,12.81
2022-10-09T00:13:27.700Z,13.34
2022-10-09T00:15:54.155Z,13.36
2022-10-09T00:18:20.426Z,13.81
2022-10-09T00:20:47.252Z,12.88
2022-10-09T00:23:13.505Z,13.25
2022-10-09T00:25:39.800Z,12.56
2022-10-09T00:28:06.387Z,13.28
2022-10-09T00:30:32.790Z,12.08
2022-10-09T00:32:59.216Z,12.09
2022-10-09T00:35:25.678Z,12.17
2022-10-09T00:37:52.085Z,11.77
2022-10-09T00:40:18.605Z,12.09
2022-10-09T00:42:47.546Z,12.23
2022-10-09T00:45:14.035Z,12.77
2022-10-09T00:47:40.501Z,12.77
2022-10-09T00:50:07.178Z,12.04
2022-10-09T00:52:33.507Z,11.77
2022-10-09T00:55:00.227Z,11.31
2022-10-09T00:57:26.822Z,12.44
2022-10-09T00:59:53.084Z,11.88
2022-10-09T01:02:19.885Z,11.20
2022-10-09T01:04:46.510Z,11.58
2022-10-09T01:07:12.791Z,11.38
2022-10-09T01:09:39.076Z,11.42
2022-10-09T01:12:05.508Z,11.53
2022-10-09T01:14:31.770Z,12.06
2022-10-09T01:16:58.087Z,11.14
2022-10-09T01:19:24.558Z,11.14
2022-10-09T01:21:50.804Z,11.27
2022-10-09T01:24:17.060Z,11.28
2022-10-09T01:26:43.498Z,11.51
2022-10-09T01:29:09.765Z,11.32
2022-10-09T01:31:36.134Z,11.18
2022-10-09T01:34:02.659Z,10.43
2022-10-09T01:36:28.978Z,10.19
2022-10-09T01:38:55.250Z,10.33
2022-10-09T01:41:21.634Z,10.74
2022-10-09T01:43:47.898Z,9.86
2022-10-09T01:46:14.395Z,10.02
2022-10-09T01:48:41.404Z,10.63
2022-10-09T01:51:07.789Z,10.45
2022-10-09T01:53:34.047Z,10.31
2022-10-09T01:56:00.773Z,10.46
2022-10-09T01:58:27.047Z,10.71
2022-10-09T02:00:53.311Z,10.07
2022-10-09T02:03:20.142Z,10.44
2022-10-09T02:05:46.538Z,10.51
2022-10-09T02:08:12.998Z,10.57
2022-10-09T02:10:39.266Z,10.48
2022-10-09T02:13:05.514Z,10.61
2022-10-09T02:15:31.832Z,10.70
2022-10-09T02:17:58.597Z,10.01
2022-10-09T02:20:24.880Z,10.01
2022-10-09T02:22:51.497Z,10.20
2022-10-09T02:25:18.053Z,10.46
2022-10-09T02:27:44.373Z,10.32
2022-10-09T02:30:12.844Z,10.56
2022-10-09T02:32:39.418Z,9.56
2022-10-09T02:35:05.691Z,10.23
2022-10-09T02:37:32.272Z,10.06
2022-10-09T02:39:58.582Z,10.02
2022-10-09T02:42:24.896Z,10.18
2022-10-09T02:44:51.205Z,10.12
2022-10-09T02:47:17.937Z,9.61
2022-10-09T02:49:44.320Z,9.92
2022-10-09T02:52:10.597Z,9.85
2022-10-09T02:54:37.139Z,10.32
2022-10-09T02:57:03.479Z,10.35
2022-10-09T02:59:29.745Z,10.46
2022-10-09T03:01:56.106Z,9.98
2022-10-09T03:04:22.666Z,10.48
2022-10-09T03:06:49.021Z,10.03
2022-10-09T03:09:15.496Z,9.74
2022-10-09T03:11:41.844Z,10.29
2022-10-09T03:14:08.138Z,10.66
2022-10-09T03:16:34.846Z,11.03
2022-10-09T03:19:01.154Z,10.01
2022-10-09T03:21:27.492Z,9.89
2022-10-09T03:23:54.178Z,9.72
2022-10-09T03:26:20.528Z,9.43
2022-10-09T03:28:49.265Z,9.36
2022-10-09T03:31:33.397Z,9.50
2022-10-09T03:34:02.063Z,9.82
2022-10-09T03:36:28.409Z,9.74
2022-10-09T03:38:54.749Z,9.59
2022-10-09T03:41:21.221Z,9.08
2022-10-09T03:43:47.593Z,9.25
2022-10-09T03:46:14.931Z,9.96
2022-10-09T03:48:41.634Z,9.92
2022-10-09T03:51:10.707Z,9.65
2022-10-09T03:53:37.004Z,10.45
2022-10-09T03:56:03.367Z,10.06
2022-10-09T03:58:29.939Z,9.53
2022-10-09T04:00:56.486Z,8.58
2022-10-09T04:03:22.855Z,9.00
2022-10-09T04:05:49.191Z,9.52
2022-10-09T04:08:15.470Z,9.80
2022-10-09T04:10:41.733Z,9.61
2022-10-09T04:13:08.239Z,10.10
2022-10-09T04:15:34.609Z,8.90
2022-10-09T04:18:00.859Z,9.54
2022-10-09T04:20:27.356Z,9.27
2022-10-09T04:22:53.702Z,9.28
2022-10-09T04:25:19.996Z,9.50
2022-10-09T04:27:46.777Z,9.39
2022-10-09T04:30:13.052Z,8.59
2022-10-09T04:32:39.291Z,9.13
2022-10-09T04:35:05.952Z,9.44
2022-10-09T04:37:32.231Z,9.61
2022-10-09T04:39:58.491Z,9.33
2022-10-09T04:42:24.848Z,9.10
2022-10-09T04:44:53.292Z,9.29
2022-10-09T04:47:19.560Z,9.25
2022-10-09T04:49:46.343Z,9.85
2022-10-09T04:52:12.747Z,9.69
2022-10-09T04:54:39.253Z,9.37
2022-10-09T04:57:05.995Z,9.43
2022-10-09T04:59:32.525Z,8.62
2022-10-09T05:01:59.020Z,8.49
2022-10-09T05:04:25.627Z,8.04
2022-10-09T05:06:51.892Z,8.53
2022-10-09T05:09:18.261Z,8.13
2022-10-09T05:11:44.745Z,8.40
2022-10-09T05:14:11.305Z,9.11
2022-10-09T05:17:01.081Z,8.98
2022-10-09T05:19:24.080Z,9.41
2022-10-09T05:21:50.396Z,9.28
2022-10-09T05:24:16.757Z,8.64
2022-10-09T05:26:43.458Z,8.30
2022-10-09T05:29:09.760Z,8.34
2022-10-09T05:31:36.064Z,9.10
2022-10-09T05:34:02.528Z,9.09
2022-10-09T05:36:28.882Z,8.70
2022-10-09T05:38:55.303Z,9.04
2022-10-09T05:41:21.601Z,9.08
2022-10-09T05:43:47.874Z,8.99
2022-10-09T05:46:14.197Z,8.93
2022-10-09T05:48:41.501Z,9.31
2022-10-09T05:51:07.997Z,9.25
2022-10-09T05:53:34.374Z,9.23
2022-10-09T05:56:03.673Z,8.94
2022-10-09T05:58:30.347Z,8.93
2022-10-09T06:00:56.645Z,9.55
2022-10-09T06:03:22.963Z,9.45
2022-10-09T06:05:49.396Z,9.42
2022-10-09T06:08:15.840Z,8.66
2022-10-09T06:10:42.171Z,9.29
2022-10-09T06:13:08.430Z,9.53
2022-10-09T06:15:34.756Z,9.16
2022-10-09T06:18:01.150Z,9.49
2022-10-09T06:20:27.398Z,9.49
2022-10-09T06:22:53.902Z,9.54
2022-10-09T06:25:20.283Z,9.27
2022-10-09T06:27:46.641Z,9.03
2022-10-09T06:30:12.983Z,8.41
2022-10-09T06:32:40.327Z,9.29
2022-10-09T06:35:06.620Z,9.10
2022-10-09T06:37:33.193Z,9.10
2022-10-09T06:39:59.835Z,9.22
2022-10-09T06:42:26.779Z,9.29
2022-10-09T06:44:53.119Z,9.36
2022-10-09T06:47:19.958Z,8.76
2022-10-09T06:49:46.353Z,9.26
2022-10-09T06:52:13.685Z,8.98
2022-10-09T06:54:41.072Z,9.54
2022-10-09T06:57:07.299Z,9.21
2022-10-09T06:59:33.579Z,9.16
2022-10-09T07:02:00.795Z,9.69
2022-10-09T07:04:27.143Z,9.90
2022-10-09T07:06:53.429Z,10.60
2022-10-09T07:09:19.829Z,10.59
2022-10-09T07:11:46.139Z,10.78
2022-10-09T07:14:12.558Z,10.08
2022-10-09T07:16:39.170Z,10.75
2022-10-09T07:19:06.467Z,10.89
2022-10-09T07:21:32.768Z,10.57
2022-10-09T07:24:02.158Z,9.95
2022-10-09T07:26:28.624Z,10.23
2022-10-09T07:28:57.176Z,10.05
2022-10-09T07:31:23.786Z,9.85
2022-10-09T07:33:50.472Z,10.17
2022-10-09T07:36:16.831Z,10.20
2022-10-09T07:38:43.315Z,9.99
2022-10-09T07:41:09.762Z,10.42
2022-10-09T07:43:37.571Z,10.63
2022-10-09T07:46:08.443Z,10.70
2022-10-09T07:48:34.839Z,10.64
2022-10-09T07:51:01.084Z,11.18
2022-10-09T07:53:29.027Z,10.82
2022-10-09T07:55:58.018Z,10.44
2022-10-09T07:58:24.367Z,10.59
2022-10-09T08:00:50.731Z,10.73
2022-10-09T08:03:17.286Z,10.23
2022-10-09T08:05:43.548Z,11.07
2022-10-09T08:08:09.993Z,10.84
2022-10-09T08:10:36.363Z,11.01
2022-10-09T08:13:02.658Z,10.35
2022-10-09T08:15:29.922Z,10.99
2022-10-09T08:17:56.300Z,9.96
2022-10-09T08:20:23.767Z,10.48
2022-10-09T08:22:54.454Z,10.98
2022-10-09T08:25:21.051Z,11.17
2022-10-09T08:27:47.709Z,10.35
2022-10-09T08:30:15.965Z,10.56
2022-10-09T08:32:42.760Z,11.12
2022-10-09T08:35:09.499Z,10.93
2022-10-09T08:37:36.556Z,10.56
2022-10-09T08:40:03.148Z,10.55
2022-10-09T08:42:29.572Z,11.04
2022-10-09T08:44:56.622Z,11.15
2022-10-09T08:47:23.076Z,11.15
2022-10-09T08:49:49.601Z,11.42
2022-10-09T08:52:16.230Z,11.26
2022-10-09T08:54:43.132Z,11.46
2022-10-09T08:57:09.563Z,11.85
2022-10-09T08:59:36.252Z,11.82
2022-10-09T09:02:02.801Z,11.72
2022-10-09T09:04:29.259Z,11.16
2022-10-09T09:06:55.664Z,11.99
2022-10-09T09:09:22.217Z,11.69
2022-10-09T09:11:48.476Z,12.23
2022-10-09T09:14:14.883Z,12.13
2022-10-09T09:16:41.176Z,12.40
2022-10-09T09:19:07.517Z,11.91
2022-10-09T09:21:34.387Z,11.17
2022-10-09T09:24:00.689Z,11.28
2022-10-09T09:26:27.163Z,10.77
2022-10-09T09:28:53.852Z,11.64
2022-10-09T09:31:20.247Z,11.53
2022-10-09T09:33:46.668Z,12.21
2022-10-09T09:36:13.435Z,12.52
2022-10-09T09:38:54.757Z,12.66
2022-10-09T09:41:26.329Z,12.71
2022-10-09T09:43:52.634Z,12.98
2022-10-09T09:46:20.001Z,13.12
2022-10-09T09:48:46.521Z,12.32
2022-10-09T09:51:29.337Z,12.82
2022-10-09T09:53:56.188Z,12.66
2022-10-09T09:56:22.469Z,11.75
2022-10-09T09:58:48.794Z,12.01
2022-10-09T10:01:15.409Z,12.44
2022-10-09T10:03:41.820Z,12.52
2022-10-09T10:06:08.135Z,12.91
2022-10-09T10:08:34.991Z,13.12
2022-10-09T10:11:01.726Z,12.95
2022-10-09T10:13:28.010Z,12.50
2022-10-09T10:15:54.919Z,12.83
2022-10-09T10:18:21.331Z,12.98
2022-10-09T10:20:47.864Z,12.21
2022-10-09T10:23:14.250Z,11.87
2022-10-09T10:25:40.540Z,11.79
2022-10-09T10:28:06.940Z,12.51
2022-10-09T10:30:33.353Z,12.99
2022-10-09T10:32:59.634Z,12.68
2022-10-09T10:35:25.892Z,13.20
2022-10-09T10:37:52.600Z,12.86
2022-10-09T10:40:21.274Z,12.63
2022-10-09T10:42:47.589Z,11.78
2022-10-09T10:45:14.357Z,12.21
2022-10-09T10:47:40.620Z,12.78
2022-10-09T10:50:06.939Z,13.18
2022-10-09T10:52:33.580Z,13.34
2022-10-09T10:54:59.982Z,13.52
2022-10-09T10:57:26.295Z,13.29
2022-10-09T10:59:53.218Z,13.51
2022-10-09T11:02:19.511Z,12.94
2022-10-09T11:04:45.804Z,12.96
2022-10-09T11:07:12.361Z,12.91
2022-10-09T11:09:38.626Z,12.47
2022-10-09T11:12:05.987Z,12.70
2022-10-09T11:14:32.367Z,13.20
2022-10-09T11:16:58.764Z,13.46
2022-10-09T11:19:25.377Z,13.61
2022-10-09T11:21:51.782Z,13.77
2022-10-09T11:24:18.082Z,13.53
2022-10-09T11:26:44.678Z,13.54
2022-10-09T11:29:11.335Z,12.58
2022-10-09T11:31:37.749Z,13.06
2022-10-09T11:34:06.520Z,13.40
2022-10-09T11:36:32.960Z,13.55
2022-10-09T11:38:59.539Z,13.70
2022-10-09T11:41:25.839Z,13.53
2022-10-09T11:43:52.267Z,13.67
2022-10-09T11:46:18.668Z,13.82
2022-10-09T11:48:45.044Z,13.87
2022-10-09T11:51:11.472Z,13.99
2022-10-09T11:53:37.814Z,14.06
2022-10-09T11:56:04.155Z,14.06
2022-10-09T11:58:31.185Z,14.07
2022-10-09T12:00:57.484Z,14.15
2022-10-09T12:03:25.111Z,14.27
2022-10-09T12:05:51.583Z,14.40
2022-10-09T12:08:19.545Z,14.34
2022-10-09T12:10:46.691Z,14.40
2022-10-09T12:13:13.486Z,14.38
2022-10-09T12:15:39.878Z,14.45
2022-10-09T12:18:06.165Z,14.65
2022-10-09T12:20:32.702Z,14.65
2022-10-09T12:23:25.278Z,14.46
2022-10-09T12:25:45.271Z,14.58
2022-10-09T12:28:11.557Z,14.64
2022-10-09T12:30:37.893Z,14.78
2022-10-09T12:33:04.424Z,14.96
2022-10-09T12:35:30.737Z,14.97
2022-10-09T12:37:57.044Z,14.76
2022-10-09T12:40:23.574Z,14.85
2022-10-09T12:42:50.029Z,14.83
2022-10-09T12:45:16.739Z,14.83
2022-10-09T12:47:43.161Z,14.94
2022-10-09T12:50:09.432Z,15.03
2022-10-09T12:52:35.702Z,14.83
2022-10-09T12:55:02.156Z,15.04
2022-10-09T12:57:28.428Z,15.26
2022-10-09T12:59:55.749Z,15.53
2022-10-09T13:02:22.353Z,15.48
2022-10-09T13:04:49.769Z,15.45
2022-10-09T13:07:16.137Z,15.56
2022-10-09T13:09:42.654Z,15.64
2022-10-09T13:12:09.504Z,15.46
2022-10-09T13:14:35.938Z,15.13
2022-10-09T13:17:02.682Z,15.40
2022-10-09T13:19:28.985Z,15.67
2022-10-09T13:21:55.230Z,15.85
2022-10-09T13:24:22.274Z,15.99
2022-10-09T13:26:48.570Z,16.11
2022-10-09T13:29:16.243Z,16.20
2022-10-09T13:31:42.677Z,16.22
2022-10-09T13:34:09.026Z,16.00
2022-10-09T13:36:38.439Z,16.10
2022-10-09T13:39:05.022Z,16.27
2022-10-09T13:41:31.479Z,15.68
2022-10-09T13:43:57.733Z,15.25
2022-10-09T13:46:24.322Z,15.53
2022-10-09T13:48:50.934Z,15.76
2022-10-09T13:51:17.193Z,16.06
2022-10-09T13:53:43.629Z,16.19
2022-10-09T13:56:09.965Z,16.30
2022-10-09T13:58:36.262Z,16.33
2022-10-09T14:01:02.972Z,16.37
2022-10-09T14:03:29.309Z,16.36
2022-10-09T14:05:55.829Z,16.28
2022-10-09T14:08:22.568Z,16.00
2022-10-09T14:10:48.887Z,15.95
2022-10-09T14:13:15.549Z,15.67
2022-10-09T14:15:41.901Z,15.68
2022-10-09T14:18:08.261Z,15.74
2022-10-09T14:20:34.698Z,15.61
2022-10-09T14:23:01.201Z,15.58
2022-10-09T14:25:29.278Z,15.58
2022-10-09T14:27:55.626Z,15.51
2022-10-09T14:30:22.063Z,15.46
2022-10-09T14:32:48.702Z,15.47
2022-10-09T14:35:19.351Z,15.48
2022-10-09T14:37:48.302Z,15.70
2022-10-09T14:40:14.652Z,15.76
2022-10-09T14:42:41.250Z,15.81
2022-10-09T14:45:08.046Z,15.98
2022-10-09T14:47:34.530Z,16.04
2022-10-09T14:50:00.841Z,16.15
2022-10-09T14:52:27.295Z,16.32
2022-10-09T14:54:53.556Z,16.38
2022-10-09T14:57:20.372Z,16.40
2022-10-09T14:59:46.845Z,16.45
2022-10-09T15:02:13.313Z,16.50
2022-10-09T15:04:39.708Z,16.36
2022-10-09T15:07:06.277Z,16.29
2022-10-09T15:09:32.588Z,16.26
2022-10-09T15:14:25.392Z,16.17
2022-10-09T15:16:51.743Z,16.07
2022-10-09T15:19:18.109Z,16.03
2022-10-09T15:21:44.495Z,15.91
2022-10-09T15:24:10.815Z,15.74
2022-10-09T15:26:44.429Z,15.60
2022-10-09T15:29:10.838Z,15.65
2022-10-09T15:31:37.119Z,15.67
2022-10-09T15:34:03.512Z,15.68
2022-10-09T15:36:29.831Z,15.64
2022-10-09T15:38:56.082Z,15.51
2022-10-09T15:41:22.437Z,15.44
2022-10-09T15:43:49.597Z,15.44
2022-10-09T15:46:15.893Z,15.49
2022-10-09T15:48:42.235Z,15.28
2022-10-09T15:51:08.814Z,15.29
2022-10-09T15:53:37.363Z,15.28
2022-10-09T15:56:03.854Z,15.24
2022-10-09T15:58:30.295Z,15.23
2022-10-09T16:00:56.542Z,15.26
2022-10-09T16:03:25.954Z,15.18
2022-10-09T16:05:52.560Z,15.12
2022-10-09T16:08:18.894Z,15.14
2022-10-09T16:10:48.793Z,15.17
2022-10-09T16:13:15.873Z,15.18
2022-10-09T16:15:44.514Z,15.13
2022-10-09T16:18:10.806Z,15.01
2022-10-09T16:20:40.083Z,14.93
2022-10-09T16:23:06.585Z,15.03
2022-10-09T16:25:32.891Z,14.94
2022-10-09T16:27:59.758Z,14.89
2022-10-09T16:30:26.078Z,14.78
2022-10-09T16:32:52.866Z,14.86
2022-10-09T16:35:19.816Z,14.88
2022-10-09T16:37:46.192Z,14.90
2022-10-09T16:40:12.514Z,14.88
2022-10-09T16:42:39.157Z,14.85
2022-10-09T16:45:05.451Z,14.87
2022-10-09T16:47:31.773Z,14.87
2022-10-09T16:49:58.366Z,14.86
2022-10-09T16:52:24.639Z,14.84
2022-10-09T16:54:51.236Z,14.81
2022-10-09T16:57:17.640Z,14.53
2022-10-09T16:59:43.966Z,14.46
2022-10-09T17:02:10.720Z,14.47
2022-10-09T17:04:37.500Z,14.50
2022-10-09T17:07:03.904Z,14.50
2022-10-09T17:09:30.951Z,14.47
2022-10-09T17:11:57.697Z,14.25
2022-10-09T17:14:27.017Z,13.88
2022-10-09T17:16:53.337Z,13.71
2022-10-09T17:19:20.120Z,13.73
2022-10-09T17:21:54.198Z,13.82
2022-10-09T17:24:21.433Z,13.74
2022-10-09T17:26:47.939Z,13.35
2022-10-09T17:29:16.729Z,13.61
2022-10-09T17:31:43.290Z,13.60
2022-10-09T17:34:10.013Z,13.19
2022-10-09T17:36:36.789Z,13.27
2022-10-09T17:39:03.253Z,13.21
2022-10-09T17:41:29.653Z,13.26
2022-10-09T17:43:56.147Z,13.25
2022-10-09T17:46:22.668Z,13.39
2022-10-09T17:48:48.994Z,13.35
2022-10-09T17:51:15.770Z,13.44
2022-10-09T17:53:42.724Z,13.35
2022-10-09T17:56:09.218Z,13.30
2022-10-09T17:58:35.735Z,13.07
2022-10-09T18:01:02.718Z,12.39
2022-10-09T18:03:29.561Z,12.58
2022-10-09T18:05:59.196Z,12.68
2022-10-09T18:08:25.558Z,12.90
2022-10-09T18:10:52.900Z,13.06
2022-10-09T18:13:19.307Z,13.04
2022-10-09T18:15:46.111Z,13.12
2022-10-09T18:18:17.959Z,13.05
2022-10-09T18:20:44.489Z,12.74
2022-10-09T18:23:11.103Z,12.82
2022-10-09T18:25:41.206Z,12.98
2022-10-09T18:28:07.967Z,13.08
2022-10-09T18:30:34.785Z,13.00
2022-10-09T18:33:01.372Z,12.99
2022-10-09T18:35:27.727Z,13.00
2022-10-09T18:37:54.954Z,13.02
2022-10-09T18:40:21.679Z,12.94
2022-10-09T18:42:50.977Z,12.97
2022-10-09T18:45:20.575Z,12.89
2022-10-09T18:47:47.173Z,12.82
2022-10-09T18:50:14.026Z,12.87
2022-10-09T18:52:41.361Z,12.91
2022-10-09T18:55:10.059Z,12.83
2022-10-09T18:57:36.630Z,12.87
2022-10-09T19:00:03.711Z,12.73
2022-10-09T19:02:30.344Z,12.59
2022-10-09T19:04:56.843Z,12.61
2022-10-09T19:07:23.571Z,12.48
2022-10-09T19:09:54.934Z,12.30
2022-10-09T19:12:23.825Z,12.23
2022-10-09T19:14:50.948Z,12.37
2022-10-09T19:17:17.400Z,12.39
2022-10-09T19:19:45.851Z,12.46
2022-10-09T19:22:15.421Z,12.53
2022-10-09T19:24:43.862Z,12.29
2022-10-09T19:27:10.131Z,12.31
2022-10-09T19:29:36.487Z,12.32
2022-10-09T19:32:02.894Z,12.34
2022-10-09T19:34:29.525Z,12.31
2022-10-09T19:36:55.899Z,12.36
2022-10-09T19:39:22.261Z,12.34
2022-10-09T19:41:48.516Z,12.23
2022-10-09T19:44:14.777Z,12.05
2022-10-09T19:46:41.561Z,12.11
2022-10-09T19:49:08.444Z,12.12
2022-10-09T19:51:35.080Z,12.12
2022-10-09T19:54:01.694Z,12.11
2022-10-09T19:56:30.030Z,12.15
2022-10-09T19:58:56.416Z,12.18
2022-10-09T20:01:23.405Z,11.80
2022-10-09T20:03:49.764Z,11.51
2022-10-09T20:06:18.759Z,11.70
2022-10-09T20:08:45.356Z,11.81
2022-10-09T20:11:12.128Z,11.82
2022-10-09T20:13:38.522Z,11.88
2022-10-09T20:16:04.926Z,11.97
2022-10-09T20:18:31.274Z,11.91
2022-10-09T20:20:57.630Z,11.89
2022-10-09T20:23:24.191Z,11.83
2022-10-09T20:25:50.603Z,11.86
2022-10-09T20:28:17.437Z,11.75
2022-10-09T20:30:46.304Z,11.69
2022-10-09T20:33:12.719Z,11.64
2022-10-09T20:35:38.980Z,11.71
2022-10-09T20:38:05.450Z,11.74
2022-10-09T20:40:31.750Z,11.58
2022-10-09T20:42:58.155Z,11.62
2022-10-09T20:45:25.088Z,11.67
2022-10-09T20:47:51.593Z,11.65
2022-10-09T20:50:17.894Z,11.64
2022-10-09T20:52:44.262Z,11.64
2022-10-09T20:55:12.633Z,11.60
2022-10-09T20:57:38.973Z,11.64
2022-10-09T21:00:05.649Z,11.65
2022-10-09T21:02:32.190Z,11.60
2022-10-09T21:04:58.550Z,11.59
2022-10-09T21:07:25.004Z,11.53
2022-10-09T21:09:51.333Z,11.52
2022-10-09T21:12:17.691Z,11.37
2022-10-09T21:14:45.353Z,11.16
2022-10-09T21:17:12.174Z,11.21
2022-10-09T21:19:38.502Z,11.16
2022-10-09T21:22:04.960Z,10.88
2022-10-09T21:24:31.443Z,10.99
2022-10-09T21:26:57.776Z,11.10
2022-10-09T21:29:24.590Z,11.16
2022-10-09T21:31:51.034Z,11.23
2022-10-09T21:34:17.553Z,11.19
2022-10-09T21:37:08.502Z,11.18
2022-10-09T21:39:30.337Z,11.19
2022-10-09T21:41:57.182Z,11.11
2022-10-09T21:44:23.510Z,11.11
2022-10-09T21:46:49.843Z,11.05
2022-10-09T21:49:16.748Z,11.04
2022-10-09T21:51:43.301Z,11.04
2022-10-09T21:54:09.734Z,10.93
2022-10-09T21:56:36.134Z,10.76
2022-10-09T21:59:02.653Z,10.74
2022-10-09T22:01:28.998Z,10.73
2022-10-09T22:03:55.488Z,10.78
2022-10-09T22:06:21.904Z,10.82
2022-10-09T22:08:48.222Z,10.80
2022-10-09T22:11:14.980Z,10.70
2022-10-09T22:13:41.393Z,10.58
2022-10-09T22:16:07.750Z,10.53
2022-10-09T22:18:34.268Z,10.60
2022-10-09T22:21:00.759Z,10.69
2022-10-09T22:23:27.209Z,10.74
2022-10-09T22:25:53.519Z,10.73
2022-10-09T22:28:19.850Z,10.73
2022-10-09T22:30:46.891Z,10.74
2022-10-09T22:33:13.453Z,10.69
2022-10-09T22:35:39.793Z,10.69
2022-10-09T22:38:06.069Z,10.72
2022-10-09T22:40:32.719Z,10.72
2022-10-09T22:42:59.083Z,10.73
2022-10-09T22:45:25.501Z,10.77
2022-10-09T22:47:52.022Z,10.73
2022-10-09T22:50:18.351Z,10.71
2022-10-09T22:52:44.637Z,10.68
2022-10-09T22:55:11.036Z,10.64
2022-10-09T22:57:37.327Z,10.67
2022-10-09T23:00:03.836Z,10.61
2022-10-09T23:02:30.288Z,10.59
2022-10-09T23:04:56.589Z,10.58
2022-10-09T23:07:22.923Z,10.57
2022-10-09T23:09:49.510Z,10.56
2022-10-09T23:12:15.910Z,10.44
2022-10-09T23:14:42.263Z,10.33
2022-10-09T23:17:08.807Z,10.35
2022-10-09T23:19:35.132Z,10.38
2022-10-09T23:22:01.437Z,10.41
2022-10-09T23:24:27.936Z,10.37
2022-10-09T23:26:54.255Z,10.37
2022-10-09T23:29:20.597Z,10.37
2022-10-09T23:31:47.168Z,10.35
2022-10-09T23:34:13.970Z,10.37
2022-10-09T23:36:40.611Z,10.36
2022-10-09T23:39:07.310Z,10.34
2022-10-09T23:41:33.588Z,10.19
2022-10-09T23:43:59.873Z,10.12
2022-10-09T23:46:26.239Z,10.11
2022-10-09T23:48:52.592Z,9.90
2022-10-09T23:51:18.865Z,9.74
2022-10-09T23:53:45.251Z,9.80
2022-10-09T23:56:11.790Z,9.77
2022-10-09T23:58:38.066Z,9.76
